sensor_id;sensor_type;location;lat;lon;timestamp;P1;durP1;ratioP1;P2;durP2;ratioP2
69463;SDS011;56665;41.106;16.688;2022-10-22T00:01:57;18.42;;;11.65;;
69463;SDS011;56665;41.106;16.688;2022-10-22T00:05:01;21.45;;;12.55;;
69463;SDS011;56665;41.106;16.688;2022-10-22T00:08:05;19.65;;;12.45;;
69463;SDS011;56665;41.106;16.688;2022-10-22T00:11:09;18.02;;;11.73;;
69463;SDS011;56665;41.106;16.688;2022-10-22T00:14:15;19.58;;;12.45;;
69463;SDS011;56665;41.106;16.688;2022-10-22T00:17:19;18.73;;;12.68;;
69463;SDS011;56665;41.106;16.688;2022-10-22T00:20:24;18.70;;;12.00;;
69463;SDS011;56665;41.106;16.688;2022-10-22T00:23:28;19.98;;;12.00;;
69463;SDS011;56665;41.106;16.688;2022-10-22T00:26:32;19.52;;;12.40;;
69463;SDS011;56665;41.106;16.688;2022-10-22T00:29:36;19.15;;;12.35;;
69463;SDS011;56665;41.106;16.688;2022-10-22T00:32:40;18.92;;;12.45;;
69463;SDS011;56665;41.106;16.688;2022-10-22T00:35:43;17.80;;;11.83;;
69463;SDS011;56665;41.106;16.688;2022-10-22T00:38:48;19.70;;;11.98;;
69463;SDS011;56665;41.106;16.688;2022-10-22T00:41:53;20.75;;;12.18;;
69463;SDS011;56665;41.106;16.688;2022-10-22T00:48:08;21.23;;;11.85;;
69463;SDS011;56665;41.106;16.688;2022-10-22T00:51:14;18.37;;;11.80;;
69463;SDS011;56665;41.106;16.688;2022-10-22T00:54:18;17.67;;;11.60;;
69463;SDS011;56665;41.106;16.688;2022-10-22T00:57:23;18.45;;;12.25;;
69463;SDS011;56665;41.106;16.688;2022-10-22T01:00:27;16.98;;;11.23;;
69463;SDS011;56665;41.106;16.688;2022-10-22T01:03:31;17.98;;;11.75;;
69463;SDS011;56665;41.106;16.688;2022-10-22T01:06:35;19.17;;;11.83;;
69463;SDS011;56665;41.106;16.688;2022-10-22T01:09:58;17.70;;;11.52;;
69463;SDS011;56665;41.106;16.688;2022-10-22T01:17:08;17.52;;;11.68;;
69463;SDS011;56665;41.106;16.688;2022-10-22T01:31:03;19.98;;;11.35;;
69463;SDS011;56665;41.106;16.688;2022-10-22T01:34:10;18.95;;;12.00;;
69463;SDS011;56665;41.106;16.688;2022-10-22T01:37:17;20.75;;;12.88;;
69463;SDS011;56665;41.106;16.688;2022-10-22T01:40:24;33.83;;;21.53;;
69463;SDS011;56665;41.106;16.688;2022-10-22T01:43:29;24.95;;;15.68;;
69463;SDS011;56665;41.106;16.688;2022-10-22T01:46:33;22.63;;;14.93;;
69463;SDS011;56665;41.106;16.688;2022-10-22T02:00:00;21.85;;;11.73;;
69463;SDS011;56665;41.106;16.688;2022-10-22T02:03:23;19.33;;;12.10;;
69463;SDS011;56665;41.106;16.688;2022-10-22T02:06:31;16.58;;;11.38;;
69463;SDS011;56665;41.106;16.688;2022-10-22T02:09:37;20.73;;;13.45;;
69463;SDS011;56665;41.106;16.688;2022-10-22T02:12:42;19.13;;;12.63;;
69463;SDS011;56665;41.106;16.688;2022-10-22T02:15:51;20.52;;;13.55;;
69463;SDS011;56665;41.106;16.688;2022-10-22T02:18:55;19.02;;;12.50;;
69463;SDS011;56665;41.106;16.688;2022-10-22T02:22:04;20.92;;;13.35;;
69463;SDS011;56665;41.106;16.688;2022-10-22T02:25:08;21.42;;;13.32;;
69463;SDS011;56665;41.106;16.688;2022-10-22T02:28:18;18.47;;;12.47;;
69463;SDS011;56665;41.106;16.688;2022-10-22T02:31:42;20.17;;;13.35;;
69463;SDS011;56665;41.106;16.688;2022-10-22T02:34:49;20.48;;;13.43;;
69463;SDS011;56665;41.106;16.688;2022-10-22T02:37:54;21.40;;;13.63;;
69463;SDS011;56665;41.106;16.688;2022-10-22T02:40:59;20.17;;;12.60;;
69463;SDS011;56665;41.106;16.688;2022-10-22T02:44:06;17.80;;;12.47;;
69463;SDS011;56665;41.106;16.688;2022-10-22T02:47:12;19.67;;;12.60;;
69463;SDS011;56665;41.106;16.688;2022-10-22T02:50:16;19.67;;;12.40;;
69463;SDS011;56665;41.106;16.688;2022-10-22T02:53:20;18.55;;;10.88;;
69463;SDS011;56665;41.106;16.688;2022-10-22T02:56:23;17.25;;;11.27;;
69463;SDS011;56665;41.106;16.688;2022-10-22T02:59:27;18.10;;;11.43;;
69463;SDS011;56665;41.106;16.688;2022-10-22T03:02:31;20.20;;;11.65;;
69463;SDS011;56665;41.106;16.688;2022-10-22T03:05:35;19.45;;;11.90;;
69463;SDS011;56665;41.106;16.688;2022-10-22T03:08:39;17.75;;;11.48;;
69463;SDS011;56665;41.106;16.688;2022-10-22T03:11:43;17.63;;;11.43;;
69463;SDS011;56665;41.106;16.688;2022-10-22T03:14:47;17.37;;;11.30;;
69463;SDS011;56665;41.106;16.688;2022-10-22T03:17:51;17.13;;;11.00;;
69463;SDS011;56665;41.106;16.688;2022-10-22T03:20:59;17.48;;;11.07;;
69463;SDS011;56665;41.106;16.688;2022-10-22T03:24:07;19.05;;;11.10;;
69463;SDS011;56665;41.106;16.688;2022-10-22T03:27:16;16.48;;;10.75;;
69463;SDS011;56665;41.106;16.688;2022-10-22T03:30:22;17.15;;;11.02;;
69463;SDS011;56665;41.106;16.688;2022-10-22T03:33:26;19.67;;;11.20;;
69463;SDS011;56665;41.106;16.688;2022-10-22T03:36:30;16.80;;;10.88;;
69463;SDS011;56665;41.106;16.688;2022-10-22T03:39:34;16.88;;;10.77;;
69463;SDS011;56665;41.106;16.688;2022-10-22T03:42:40;16.25;;;10.57;;
69463;SDS011;56665;41.106;16.688;2022-10-22T03:45:45;15.73;;;10.73;;
69463;SDS011;56665;41.106;16.688;2022-10-22T03:48:48;16.60;;;11.48;;
69463;SDS011;56665;41.106;16.688;2022-10-22T03:51:52;19.48;;;11.75;;
69463;SDS011;56665;41.106;16.688;2022-10-22T03:54:56;17.10;;;11.20;;
69463;SDS011;56665;41.106;16.688;2022-10-22T03:58:00;18.33;;;11.07;;
69463;SDS011;56665;41.106;16.688;2022-10-22T04:01:08;19.83;;;11.93;;
69463;SDS011;56665;41.106;16.688;2022-10-22T04:04:13;18.20;;;11.55;;
69463;SDS011;56665;41.106;16.688;2022-10-22T04:07:17;19.75;;;12.25;;
69463;SDS011;56665;41.106;16.688;2022-10-22T04:10:21;18.67;;;12.38;;
69463;SDS011;56665;41.106;16.688;2022-10-22T04:13:25;20.63;;;13.02;;
69463;SDS011;56665;41.106;16.688;2022-10-22T04:16:28;19.83;;;12.50;;
69463;SDS011;56665;41.106;16.688;2022-10-22T04:19:34;20.45;;;12.65;;
69463;SDS011;56665;41.106;16.688;2022-10-22T04:22:38;20.70;;;12.55;;
69463;SDS011;56665;41.106;16.688;2022-10-22T04:25:42;19.95;;;12.55;;
69463;SDS011;56665;41.106;16.688;2022-10-22T04:28:46;21.00;;;12.77;;
69463;SDS011;56665;41.106;16.688;2022-10-22T04:31:51;22.63;;;12.73;;
69463;SDS011;56665;41.106;16.688;2022-10-22T04:34:54;20.20;;;12.57;;
69463;SDS011;56665;41.106;16.688;2022-10-22T04:37:58;20.50;;;13.23;;
69463;SDS011;56665;41.106;16.688;2022-10-22T04:44:24;19.10;;;11.13;;
69463;SDS011;56665;41.106;16.688;2022-10-22T04:47:27;18.10;;;11.67;;
69463;SDS011;56665;41.106;16.688;2022-10-22T04:50:32;19.35;;;11.30;;
69463;SDS011;56665;41.106;16.688;2022-10-22T04:53:36;16.42;;;11.07;;
69463;SDS011;56665;41.106;16.688;2022-10-22T04:56:40;19.00;;;10.73;;
69463;SDS011;56665;41.106;16.688;2022-10-22T04:59:45;16.38;;;10.52;;
69463;SDS011;56665;41.106;16.688;2022-10-22T05:02:49;14.90;;;10.40;;
69463;SDS011;56665;41.106;16.688;2022-10-22T05:05:53;16.52;;;10.60;;
69463;SDS011;56665;41.106;16.688;2022-10-22T05:08:58;14.20;;;9.75;;
69463;SDS011;56665;41.106;16.688;2022-10-22T05:12:04;15.07;;;10.00;;
69463;SDS011;56665;41.106;16.688;2022-10-22T05:15:08;14.75;;;9.48;;
69463;SDS011;56665;41.106;16.688;2022-10-22T05:18:12;14.30;;;9.67;;
69463;SDS011;56665;41.106;16.688;2022-10-22T05:21:16;13.60;;;9.15;;
69463;SDS011;56665;41.106;16.688;2022-10-22T05:24:21;14.95;;;9.85;;
69463;SDS011;56665;41.106;16.688;2022-10-22T05:27:26;16.85;;;9.55;;
69463;SDS011;56665;41.106;16.688;2022-10-22T05:30:29;15.55;;;9.27;;
69463;SDS011;56665;41.106;16.688;2022-10-22T05:33:34;14.37;;;9.10;;
69463;SDS011;56665;41.106;16.688;2022-10-22T05:36:37;14.48;;;9.05;;
69463;SDS011;56665;41.106;16.688;2022-10-22T05:39:41;13.48;;;8.75;;
69463;SDS011;56665;41.106;16.688;2022-10-22T05:42:45;12.95;;;8.65;;
69463;SDS011;56665;41.106;16.688;2022-10-22T05:45:48;14.93;;;8.20;;
69463;SDS011;56665;41.106;16.688;2022-10-22T05:48:59;13.83;;;8.83;;
69463;SDS011;56665;41.106;16.688;2022-10-22T05:52:05;12.90;;;8.82;;
69463;SDS011;56665;41.106;16.688;2022-10-22T05:55:09;14.43;;;8.52;;
69463;SDS011;56665;41.106;16.688;2022-10-22T05:58:13;14.13;;;8.43;;
69463;SDS011;56665;41.106;16.688;2022-10-22T06:01:23;12.57;;;8.32;;
69463;SDS011;56665;41.106;16.688;2022-10-22T06:04:29;13.43;;;9.02;;
69463;SDS011;56665;41.106;16.688;2022-10-22T06:07:33;15.20;;;8.70;;
69463;SDS011;56665;41.106;16.688;2022-10-22T06:10:39;14.52;;;10.48;;
69463;SDS011;56665;41.106;16.688;2022-10-22T06:13:45;13.43;;;9.82;;
69463;SDS011;56665;41.106;16.688;2022-10-22T06:16:49;13.70;;;7.75;;
69463;SDS011;56665;41.106;16.688;2022-10-22T06:19:53;9.33;;;7.03;;
69463;SDS011;56665;41.106;16.688;2022-10-22T06:22:57;13.63;;;9.18;;
69463;SDS011;56665;41.106;16.688;2022-10-22T06:26:01;11.95;;;7.70;;
69463;SDS011;56665;41.106;16.688;2022-10-22T06:29:05;10.70;;;7.60;;
69463;SDS011;56665;41.106;16.688;2022-10-22T06:32:09;12.43;;;7.97;;
69463;SDS011;56665;41.106;16.688;2022-10-22T06:35:13;13.55;;;8.70;;
69463;SDS011;56665;41.106;16.688;2022-10-22T06:38:17;12.27;;;8.15;;
69463;SDS011;56665;41.106;16.688;2022-10-22T06:41:21;14.25;;;8.48;;
69463;SDS011;56665;41.106;16.688;2022-10-22T06:44:26;12.40;;;8.05;;
69463;SDS011;56665;41.106;16.688;2022-10-22T06:47:30;14.55;;;9.30;;
69463;SDS011;56665;41.106;16.688;2022-10-22T06:50:35;12.63;;;8.63;;
69463;SDS011;56665;41.106;16.688;2022-10-22T06:53:39;13.05;;;8.23;;
69463;SDS011;56665;41.106;16.688;2022-10-22T06:56:43;14.23;;;7.78;;
69463;SDS011;56665;41.106;16.688;2022-10-22T06:59:47;11.48;;;8.23;;
69463;SDS011;56665;41.106;16.688;2022-10-22T07:02:51;11.23;;;8.35;;
69463;SDS011;56665;41.106;16.688;2022-10-22T07:05:57;11.38;;;8.00;;
69463;SDS011;56665;41.106;16.688;2022-10-22T07:09:04;11.95;;;7.50;;
69463;SDS011;56665;41.106;16.688;2022-10-22T07:12:08;11.50;;;7.95;;
69463;SDS011;56665;41.106;16.688;2022-10-22T07:15:12;10.52;;;7.60;;
69463;SDS011;56665;41.106;16.688;2022-10-22T07:18:16;12.50;;;9.20;;
69463;SDS011;56665;41.106;16.688;2022-10-22T07:21:20;11.07;;;8.73;;
69463;SDS011;56665;41.106;16.688;2022-10-22T07:24:25;12.07;;;9.35;;
69463;SDS011;56665;41.106;16.688;2022-10-22T07:27:28;12.45;;;8.48;;
69463;SDS011;56665;41.106;16.688;2022-10-22T07:30:33;10.73;;;7.70;;
69463;SDS011;56665;41.106;16.688;2022-10-22T07:33:38;10.45;;;7.72;;
69463;SDS011;56665;41.106;16.688;2022-10-22T07:36:42;21.17;;;10.93;;
69463;SDS011;56665;41.106;16.688;2022-10-22T07:39:46;12.27;;;9.57;;
69463;SDS011;56665;41.106;16.688;2022-10-22T07:42:51;10.27;;;7.45;;
69463;SDS011;56665;41.106;16.688;2022-10-22T07:45:54;10.48;;;7.32;;
69463;SDS011;56665;41.106;16.688;2022-10-22T07:48:58;10.88;;;7.55;;
69463;SDS011;56665;41.106;16.688;2022-10-22T07:52:02;10.18;;;7.20;;
69463;SDS011;56665;41.106;16.688;2022-10-22T07:55:06;10.45;;;7.30;;
69463;SDS011;56665;41.106;16.688;2022-10-22T07:58:10;10.30;;;7.22;;
69463;SDS011;56665;41.106;16.688;2022-10-22T08:01:14;11.20;;;9.07;;
69463;SDS011;56665;41.106;16.688;2022-10-22T08:04:17;14.25;;;9.10;;
69463;SDS011;56665;41.106;16.688;2022-10-22T08:07:21;14.27;;;8.10;;
69463;SDS011;56665;41.106;16.688;2022-10-22T08:10:25;10.27;;;6.93;;
69463;SDS011;56665;41.106;16.688;2022-10-22T08:13:29;10.18;;;6.40;;
69463;SDS011;56665;41.106;16.688;2022-10-22T08:16:33;9.48;;;6.40;;
69463;SDS011;56665;41.106;16.688;2022-10-22T08:19:37;8.18;;;5.57;;
69463;SDS011;56665;41.106;16.688;2022-10-22T08:22:41;8.43;;;5.60;;
69463;SDS011;56665;41.106;16.688;2022-10-22T08:25:45;8.32;;;5.57;;
69463;SDS011;56665;41.106;16.688;2022-10-22T08:28:49;9.60;;;5.90;;
69463;SDS011;56665;41.106;16.688;2022-10-22T08:31:52;7.30;;;5.18;;
69463;SDS011;56665;41.106;16.688;2022-10-22T08:34:56;8.05;;;5.13;;
69463;SDS011;56665;41.106;16.688;2022-10-22T08:38:00;7.68;;;4.88;;
69463;SDS011;56665;41.106;16.688;2022-10-22T08:41:15;8.10;;;5.03;;
69463;SDS011;56665;41.106;16.688;2022-10-22T08:44:42;8.80;;;5.40;;
69463;SDS011;56665;41.106;16.688;2022-10-22T08:48:09;7.57;;;5.40;;
69463;SDS011;56665;41.106;16.688;2022-10-22T08:51:20;7.25;;;5.57;;
69463;SDS011;56665;41.106;16.688;2022-10-22T08:54:34;9.52;;;6.18;;
69463;SDS011;56665;41.106;16.688;2022-10-22T08:58:04;7.85;;;5.18;;
69463;SDS011;56665;41.106;16.688;2022-10-22T09:01:37;7.85;;;5.07;;
69463;SDS011;56665;41.106;16.688;2022-10-22T09:04:45;8.35;;;5.32;;
69463;SDS011;56665;41.106;16.688;2022-10-22T09:07:57;7.25;;;5.15;;
69463;SDS011;56665;41.106;16.688;2022-10-22T09:11:02;7.75;;;5.00;;
69463;SDS011;56665;41.106;16.688;2022-10-22T09:14:26;7.72;;;5.00;;
69463;SDS011;56665;41.106;16.688;2022-10-22T09:17:34;7.07;;;4.72;;
69463;SDS011;56665;41.106;16.688;2022-10-22T09:21:20;8.25;;;5.15;;
69463;SDS011;56665;41.106;16.688;2022-10-22T09:24:29;8.05;;;5.00;;
69463;SDS011;56665;41.106;16.688;2022-10-22T09:27:39;7.00;;;4.78;;
69463;SDS011;56665;41.106;16.688;2022-10-22T09:30:43;7.82;;;4.38;;
69463;SDS011;56665;41.106;16.688;2022-10-22T09:33:49;7.30;;;4.82;;
69463;SDS011;56665;41.106;16.688;2022-10-22T09:37:00;5.70;;;4.30;;
69463;SDS011;56665;41.106;16.688;2022-10-22T09:40:06;6.65;;;4.78;;
69463;SDS011;56665;41.106;16.688;2022-10-22T09:43:17;11.05;;;4.72;;
69463;SDS011;56665;41.106;16.688;2022-10-22T09:46:21;7.57;;;4.28;;
69463;SDS011;56665;41.106;16.688;2022-10-22T09:49:27;7.80;;;4.30;;
69463;SDS011;56665;41.106;16.688;2022-10-22T09:52:35;4.80;;;3.53;;
69463;SDS011;56665;41.106;16.688;2022-10-22T09:55:39;8.27;;;4.22;;
69463;SDS011;56665;41.106;16.688;2022-10-22T09:58:45;6.28;;;3.97;;
69463;SDS011;56665;41.106;16.688;2022-10-22T10:01:57;6.60;;;4.35;;
69463;SDS011;56665;41.106;16.688;2022-10-22T10:05:03;7.80;;;4.88;;
69463;SDS011;56665;41.106;16.688;2022-10-22T10:08:11;6.35;;;4.40;;
69463;SDS011;56665;41.106;16.688;2022-10-22T10:11:18;7.68;;;4.30;;
69463;SDS011;56665;41.106;16.688;2022-10-22T10:14:40;7.43;;;4.40;;
69463;SDS011;56665;41.106;16.688;2022-10-22T10:34:42;5.93;;;3.85;;
69463;SDS011;56665;41.106;16.688;2022-10-22T10:41:16;4.70;;;3.20;;
69463;SDS011;56665;41.106;16.688;2022-10-22T10:44:45;5.90;;;3.42;;
69463;SDS011;56665;41.106;16.688;2022-10-22T10:51:25;5.57;;;3.72;;
69463;SDS011;56665;41.106;16.688;2022-10-22T10:58:40;6.90;;;4.10;;
69463;SDS011;56665;41.106;16.688;2022-10-22T11:05:37;5.93;;;3.75;;
69463;SDS011;56665;41.106;16.688;2022-10-22T11:12:11;4.70;;;3.40;;
69463;SDS011;56665;41.106;16.688;2022-10-22T11:15:30;7.32;;;3.63;;
69463;SDS011;56665;41.106;16.688;2022-10-22T11:18:38;4.97;;;3.40;;
69463;SDS011;56665;41.106;16.688;2022-10-22T11:25:41;5.68;;;3.63;;
69463;SDS011;56665;41.106;16.688;2022-10-22T11:28:51;4.80;;;3.33;;
69463;SDS011;56665;41.106;16.688;2022-10-22T11:31:55;5.97;;;3.70;;
69463;SDS011;56665;41.106;16.688;2022-10-22T11:35:02;5.60;;;3.20;;
69463;SDS011;56665;41.106;16.688;2022-10-22T11:38:11;6.18;;;3.45;;
69463;SDS011;56665;41.106;16.688;2022-10-22T11:41:22;7.10;;;3.88;;
69463;SDS011;56665;41.106;16.688;2022-10-22T11:44:29;11.68;;;4.28;;
69463;SDS011;56665;41.106;16.688;2022-10-22T11:47:52;7.90;;;4.00;;
69463;SDS011;56665;41.106;16.688;2022-10-22T11:51:00;5.00;;;3.47;;
69463;SDS011;56665;41.106;16.688;2022-10-22T11:57:36;5.07;;;3.60;;
69463;SDS011;56665;41.106;16.688;2022-10-22T12:00:45;5.03;;;3.20;;
69463;SDS011;56665;41.106;16.688;2022-10-22T12:03:52;5.15;;;3.65;;
69463;SDS011;56665;41.106;16.688;2022-10-22T12:07:01;5.30;;;3.30;;
69463;SDS011;56665;41.106;16.688;2022-10-22T12:10:10;5.53;;;3.53;;
69463;SDS011;56665;41.106;16.688;2022-10-22T12:13:22;5.32;;;3.50;;
69463;SDS011;56665;41.106;16.688;2022-10-22T12:16:38;6.90;;;3.78;;
69463;SDS011;56665;41.106;16.688;2022-10-22T12:19:46;4.47;;;3.00;;
69463;SDS011;56665;41.106;16.688;2022-10-22T12:22:54;6.07;;;3.58;;
69463;SDS011;56665;41.106;16.688;2022-10-22T12:25:59;5.00;;;3.25;;
69463;SDS011;56665;41.106;16.688;2022-10-22T12:29:08;7.78;;;3.60;;
69463;SDS011;56665;41.106;16.688;2022-10-22T12:32:13;10.70;;;3.83;;
69463;SDS011;56665;41.106;16.688;2022-10-22T12:35:19;5.03;;;3.38;;
69463;SDS011;56665;41.106;16.688;2022-10-22T12:38:24;9.48;;;3.30;;
69463;SDS011;56665;41.106;16.688;2022-10-22T12:41:32;5.60;;;3.45;;
69463;SDS011;56665;41.106;16.688;2022-10-22T12:44:38;8.68;;;3.35;;
69463;SDS011;56665;41.106;16.688;2022-10-22T12:47:45;6.57;;;3.55;;
69463;SDS011;56665;41.106;16.688;2022-10-22T12:50:55;7.22;;;3.80;;
69463;SDS011;56665;41.106;16.688;2022-10-22T12:54:06;7.05;;;3.72;;
69463;SDS011;56665;41.106;16.688;2022-10-22T12:57:13;6.85;;;3.72;;
69463;SDS011;56665;41.106;16.688;2022-10-22T13:00:24;7.10;;;3.78;;
69463;SDS011;56665;41.106;16.688;2022-10-22T13:03:32;7.45;;;3.80;;
69463;SDS011;56665;41.106;16.688;2022-10-22T13:06:42;5.38;;;3.47;;
69463;SDS011;56665;41.106;16.688;2022-10-22T13:09:55;5.15;;;3.75;;
69463;SDS011;56665;41.106;16.688;2022-10-22T13:13:01;8.07;;;4.35;;
69463;SDS011;56665;41.106;16.688;2022-10-22T13:22:41;6.88;;;4.45;;
69463;SDS011;56665;41.106;16.688;2022-10-22T13:29:09;7.53;;;3.70;;
69463;SDS011;56665;41.106;16.688;2022-10-22T13:35:27;6.07;;;3.95;;
69463;SDS011;56665;41.106;16.688;2022-10-22T13:38:35;6.03;;;3.85;;
69463;SDS011;56665;41.106;16.688;2022-10-22T13:41:38;5.47;;;3.97;;
69463;SDS011;56665;41.106;16.688;2022-10-22T13:44:43;7.13;;;4.15;;
69463;SDS011;56665;41.106;16.688;2022-10-22T13:47:51;7.10;;;4.05;;
69463;SDS011;56665;41.106;16.688;2022-10-22T13:50:56;7.85;;;4.40;;
69463;SDS011;56665;41.106;16.688;2022-10-22T13:54:00;5.63;;;3.95;;
69463;SDS011;56665;41.106;16.688;2022-10-22T13:57:07;6.97;;;4.47;;
69463;SDS011;56665;41.106;16.688;2022-10-22T14:00:16;8.35;;;5.00;;
69463;SDS011;56665;41.106;16.688;2022-10-22T14:03:24;7.75;;;4.57;;
69463;SDS011;56665;41.106;16.688;2022-10-22T14:06:32;8.18;;;4.40;;
69463;SDS011;56665;41.106;16.688;2022-10-22T14:09:36;6.07;;;4.28;;
69463;SDS011;56665;41.106;16.688;2022-10-22T14:12:40;7.88;;;4.43;;
69463;SDS011;56665;41.106;16.688;2022-10-22T14:15:44;7.25;;;4.65;;
69463;SDS011;56665;41.106;16.688;2022-10-22T14:18:50;8.13;;;4.90;;
69463;SDS011;56665;41.106;16.688;2022-10-22T14:21:55;7.90;;;3.97;;
69463;SDS011;56665;41.106;16.688;2022-10-22T14:24:58;6.10;;;4.30;;
69463;SDS011;56665;41.106;16.688;2022-10-22T14:28:02;7.35;;;4.80;;
69463;SDS011;56665;41.106;16.688;2022-10-22T14:31:08;8.13;;;4.57;;
69463;SDS011;56665;41.106;16.688;2022-10-22T14:34:13;7.93;;;5.05;;
69463;SDS011;56665;41.106;16.688;2022-10-22T14:37:18;9.43;;;4.90;;
69463;SDS011;56665;41.106;16.688;2022-10-22T14:40:23;7.13;;;4.80;;
69463;SDS011;56665;41.106;16.688;2022-10-22T14:43:28;8.32;;;5.65;;
69463;SDS011;56665;41.106;16.688;2022-10-22T14:46:33;8.38;;;5.22;;
69463;SDS011;56665;41.106;16.688;2022-10-22T14:49:37;6.75;;;4.97;;
69463;SDS011;56665;41.106;16.688;2022-10-22T14:52:40;8.73;;;5.70;;
69463;SDS011;56665;41.106;16.688;2022-10-22T14:55:45;12.85;;;8.18;;
69463;SDS011;56665;41.106;16.688;2022-10-22T14:58:51;10.32;;;6.75;;
69463;SDS011;56665;41.106;16.688;2022-10-22T15:01:56;10.52;;;6.13;;
69463;SDS011;56665;41.106;16.688;2022-10-22T15:04:59;7.22;;;5.07;;
69463;SDS011;56665;41.106;16.688;2022-10-22T15:08:03;8.57;;;5.30;;
69463;SDS011;56665;41.106;16.688;2022-10-22T15:11:09;7.45;;;5.32;;
69463;SDS011;56665;41.106;16.688;2022-10-22T15:14:14;10.00;;;5.25;;
69463;SDS011;56665;41.106;16.688;2022-10-22T15:17:17;7.55;;;5.40;;
69463;SDS011;56665;41.106;16.688;2022-10-22T15:20:21;8.18;;;4.80;;
69463;SDS011;56665;41.106;16.688;2022-10-22T15:23:25;10.93;;;6.97;;
69463;SDS011;56665;41.106;16.688;2022-10-22T15:26:29;70.35;;;41.92;;
69463;SDS011;56665;41.106;16.688;2022-10-22T15:29:33;78.35;;;45.25;;
69463;SDS011;56665;41.106;16.688;2022-10-22T15:32:37;58.95;;;36.83;;
69463;SDS011;56665;41.106;16.688;2022-10-22T15:35:40;36.88;;;25.58;;
69463;SDS011;56665;41.106;16.688;2022-10-22T15:38:44;24.63;;;16.67;;
69463;SDS011;56665;41.106;16.688;2022-10-22T15:41:49;17.52;;;9.52;;
69463;SDS011;56665;41.106;16.688;2022-10-22T15:44:55;11.30;;;7.35;;
69463;SDS011;56665;41.106;16.688;2022-10-22T15:48:00;12.50;;;8.20;;
69463;SDS011;56665;41.106;16.688;2022-10-22T15:51:09;11.13;;;6.53;;
69463;SDS011;56665;41.106;16.688;2022-10-22T15:54:15;10.30;;;7.22;;
69463;SDS011;56665;41.106;16.688;2022-10-22T15:57:21;10.90;;;6.60;;
69463;SDS011;56665;41.106;16.688;2022-10-22T16:00:24;9.55;;;5.75;;
69463;SDS011;56665;41.106;16.688;2022-10-22T16:03:28;9.00;;;5.80;;
69463;SDS011;56665;41.106;16.688;2022-10-22T16:06:33;8.32;;;6.28;;
69463;SDS011;56665;41.106;16.688;2022-10-22T16:09:37;9.45;;;5.90;;
69463;SDS011;56665;41.106;16.688;2022-10-22T16:12:41;9.75;;;5.95;;
69463;SDS011;56665;41.106;16.688;2022-10-22T16:15:46;12.23;;;6.55;;
69463;SDS011;56665;41.106;16.688;2022-10-22T16:18:50;9.65;;;6.22;;
69463;SDS011;56665;41.106;16.688;2022-10-22T16:21:54;10.00;;;5.68;;
69463;SDS011;56665;41.106;16.688;2022-10-22T16:24:58;12.20;;;5.82;;
69463;SDS011;56665;41.106;16.688;2022-10-22T16:28:02;10.90;;;5.55;;
69463;SDS011;56665;41.106;16.688;2022-10-22T16:31:06;12.80;;;6.20;;
69463;SDS011;56665;41.106;16.688;2022-10-22T16:34:12;10.50;;;6.25;;
69463;SDS011;56665;41.106;16.688;2022-10-22T16:37:16;10.18;;;5.75;;
69463;SDS011;56665;41.106;16.688;2022-10-22T16:40:20;9.25;;;6.22;;
69463;SDS011;56665;41.106;16.688;2022-10-22T16:43:24;9.55;;;6.30;;
69463;SDS011;56665;41.106;16.688;2022-10-22T16:46:28;9.45;;;6.50;;
69463;SDS011;56665;41.106;16.688;2022-10-22T16:49:33;9.30;;;6.07;;
69463;SDS011;56665;41.106;16.688;2022-10-22T16:52:37;8.10;;;5.65;;
69463;SDS011;56665;41.106;16.688;2022-10-22T16:55:42;10.80;;;6.63;;
69463;SDS011;56665;41.106;16.688;2022-10-22T16:58:49;10.00;;;6.32;;
69463;SDS011;56665;41.106;16.688;2022-10-22T17:01:54;10.35;;;6.38;;
69463;SDS011;56665;41.106;16.688;2022-10-22T17:04:58;9.18;;;6.03;;
69463;SDS011;56665;41.106;16.688;2022-10-22T17:08:02;9.57;;;6.47;;
69463;SDS011;56665;41.106;16.688;2022-10-22T17:11:07;11.75;;;6.55;;
69463;SDS011;56665;41.106;16.688;2022-10-22T17:17:23;9.82;;;6.32;;
69463;SDS011;56665;41.106;16.688;2022-10-22T17:20:26;11.27;;;6.15;;
69463;SDS011;56665;41.106;16.688;2022-10-22T17:23:30;10.07;;;6.80;;
69463;SDS011;56665;41.106;16.688;2022-10-22T17:26:34;11.77;;;6.88;;
69463;SDS011;56665;41.106;16.688;2022-10-22T17:29:39;11.38;;;8.82;;
69463;SDS011;56665;41.106;16.688;2022-10-22T17:32:43;13.10;;;7.22;;
69463;SDS011;56665;41.106;16.688;2022-10-22T17:35:47;12.20;;;6.70;;
69463;SDS011;56665;41.106;16.688;2022-10-22T17:38:55;11.30;;;7.28;;
69463;SDS011;56665;41.106;16.688;2022-10-22T17:42:01;12.13;;;7.20;;
69463;SDS011;56665;41.106;16.688;2022-10-22T17:45:04;11.77;;;8.27;;
69463;SDS011;56665;41.106;16.688;2022-10-22T17:48:09;9.88;;;6.68;;
69463;SDS011;56665;41.106;16.688;2022-10-22T17:51:12;10.50;;;6.70;;
69463;SDS011;56665;41.106;16.688;2022-10-22T17:54:16;11.52;;;6.78;;
69463;SDS011;56665;41.106;16.688;2022-10-22T17:57:20;11.57;;;6.72;;
69463;SDS011;56665;41.106;16.688;2022-10-22T18:00:24;10.77;;;6.43;;
69463;SDS011;56665;41.106;16.688;2022-10-22T18:03:28;8.55;;;6.07;;
69463;SDS011;56665;41.106;16.688;2022-10-22T18:06:32;11.13;;;6.53;;
69463;SDS011;56665;41.106;16.688;2022-10-22T18:09:36;8.90;;;5.47;;
69463;SDS011;56665;41.106;16.688;2022-10-22T18:12:41;7.93;;;5.63;;
69463;SDS011;56665;41.106;16.688;2022-10-22T18:15:44;10.10;;;5.90;;
69463;SDS011;56665;41.106;16.688;2022-10-22T18:18:49;8.55;;;5.75;;
69463;SDS011;56665;41.106;16.688;2022-10-22T18:21:56;10.02;;;5.90;;
69463;SDS011;56665;41.106;16.688;2022-10-22T18:24:59;11.40;;;6.93;;
69463;SDS011;56665;41.106;16.688;2022-10-22T18:28:03;10.80;;;6.88;;
69463;SDS011;56665;41.106;16.688;2022-10-22T18:31:07;13.77;;;6.90;;
69463;SDS011;56665;41.106;16.688;2022-10-22T18:34:14;11.18;;;7.57;;
69463;SDS011;56665;41.106;16.688;2022-10-22T18:37:18;14.73;;;9.23;;
69463;SDS011;56665;41.106;16.688;2022-10-22T18:40:22;17.85;;;9.80;;
69463;SDS011;56665;41.106;16.688;2022-10-22T18:43:26;15.30;;;9.32;;
69463;SDS011;56665;41.106;16.688;2022-10-22T18:46:34;14.40;;;9.07;;
69463;SDS011;56665;41.106;16.688;2022-10-22T18:49:41;13.25;;;8.10;;
69463;SDS011;56665;41.106;16.688;2022-10-22T18:52:45;13.00;;;7.95;;
69463;SDS011;56665;41.106;16.688;2022-10-22T18:55:48;14.75;;;8.88;;
69463;SDS011;56665;41.106;16.688;2022-10-22T18:58:54;13.05;;;8.57;;
69463;SDS011;56665;41.106;16.688;2022-10-22T19:01:57;59.15;;;31.30;;
69463;SDS011;56665;41.106;16.688;2022-10-22T19:05:01;236.10;;;141.18;;
69463;SDS011;56665;41.106;16.688;2022-10-22T19:08:05;372.55;;;259.50;;
69463;SDS011;56665;41.106;16.688;2022-10-22T19:11:11;505.98;;;376.33;;
69463;SDS011;56665;41.106;16.688;2022-10-22T19:14:16;380.65;;;268.02;;
69463;SDS011;56665;41.106;16.688;2022-10-22T19:17:21;343.15;;;241.23;;
69463;SDS011;56665;41.106;16.688;2022-10-22T19:20:25;266.02;;;190.82;;
69463;SDS011;56665;41.106;16.688;2022-10-22T19:23:29;330.63;;;200.57;;
69463;SDS011;56665;41.106;16.688;2022-10-22T19:26:33;132.60;;;79.53;;
69463;SDS011;56665;41.106;16.688;2022-10-22T19:29:37;112.60;;;74.22;;
69463;SDS011;56665;41.106;16.688;2022-10-22T19:32:41;196.18;;;146.55;;
69463;SDS011;56665;41.106;16.688;2022-10-22T19:35:46;144.52;;;94.60;;
69463;SDS011;56665;41.106;16.688;2022-10-22T19:38:50;137.65;;;97.97;;